Arethusa — 9HJR9 — position and weather

sailwx.info

Track history (hours):
 
Tides and Currents Weather Stations Pressure Air Temp Water Temp Dewpoint Dewpoint Depression Visibility Wind Speed Wind Dir Waves Ship Positions

Arethusa

Last reported at 2017-Feb-26 07:33 UTC. Time now 2017-Feb-26 07:39 UTC.
Position N 45°05' E 013°38'.

Length 60 m; draft 3 m.

Type: Passenger vessel. MMSI: 249069000.

Date/timePositionNaut miles runAvg speedWind from/ knotsBaromVisibWave heightAir tempDewpointWater temp
2017-Feb-26 07:33N 45°05' E 013°38'5 5.2
2017-Feb-26 06:33N 45°00' E 013°37'10 9.5
2017-Feb-26 05:31N 44°53' E 013°47'2 0.1
2017-Feb-25 05:33N 44°52' E 013°44'10 9.7
2017-Feb-25 04:33N 44°60' E 013°36'10 9.5
2017-Feb-25 03:33N 45°09' E 013°31'6 6.0
2017-Feb-25 02:33N 45°15' E 013°32'0 0.4
2017-Feb-25 01:33N 45°15' E 013°33'8 7.6
2017-Feb-25 00:33N 45°22' E 013°28'8 8.4
2017-Feb-24 23:33N 45°30' E 013°27'9 9.2
2017-Feb-24 22:33N 45°34' E 013°39'4 3.5
2017-Feb-24 21:32N 45°33' E 013°44'0 0.0
2017-Feb-24 20:29N 45°33' E 013°44'0 0.0
2017-Feb-24 19:32N 45°33' E 013°44'0 0.0
2017-Feb-24 18:26N 45°33' E 013°44'0 0.0
2017-Feb-24 17:32N 45°33' E 013°44'0 0.0
2017-Feb-24 16:32N 45°33' E 013°44'0 0.0
2017-Feb-24 15:32N 45°33' E 013°44'0 0.0
2017-Feb-24 14:32N 45°33' E 013°44'0 0.0
2017-Feb-24 13:26N 45°33' E 013°44'0 0.0
2017-Feb-24 12:29N 45°33' E 013°44'0 0.0
2017-Feb-24 11:32N 45°33' E 013°44'0 0.0
2017-Feb-24 10:26N 45°33' E 013°44'0 0.0
2017-Feb-24 09:23N 45°33' E 013°44'0 0.0
2017-Feb-24 08:32N 45°33' E 013°44'0 0.0
2017-Feb-24 07:29N 45°33' E 013°44'0 0.0
2017-Feb-24 06:32N 45°33' E 013°44'2 2.3
2017-Feb-24 05:32N 45°34' E 013°41'0 0.0
2017-Feb-24 04:32N 45°34' E 013°41'0 0.0
2017-Feb-24 03:32N 45°34' E 013°41'0 0.0
2017-Feb-24 02:32N 45°34' E 013°41'0 0.0
2017-Feb-24 01:32N 45°34' E 013°41'0 0.0
2017-Feb-24 00:29N 45°34' E 013°41'0 0.0
2017-Feb-23 23:32N 45°34' E 013°41'0 0.0
2017-Feb-23 22:31N 45°34' E 013°41'0 0.4
2017-Feb-23 21:34N 45°34' E 013°40'10 9.6
2017-Feb-23 20:33N 45°32' E 013°27'1010.2
2017-Feb-23 19:34N 45°24' E 013°18'1010.4
2017-Feb-23 18:34N 45°22' E 013°03'1111.3
2017-Feb-23 17:34N 45°22' E 012°47'1111.1
2017-Feb-23 16:34N 45°23' E 012°31'8 8.1
2017-Feb-23 15:33N 45°26' E 012°21'1 1.0
2017-Feb-23 14:33N 45°26' E 012°19'0 0.0
2017-Feb-23 13:33N 45°26' E 012°19'0 0.0
2017-Feb-23 12:33N 45°26' E 012°19'0 0.0
2017-Feb-23 11:33N 45°26' E 012°19'0 0.0
2017-Feb-23 10:33N 45°26' E 012°19'0 0.0
2017-Feb-23 09:33N 45°26' E 012°19'0 0.0
2017-Feb-23 08:33N 45°26' E 012°19'0 0.0
2017-Feb-23 07:33N 45°26' E 012°19'0 0.0
2017-Feb-23 06:33N 45°26' E 012°19'0 0.0
2017-Feb-23 05:33N 45°26' E 012°19'0 0.0
2017-Feb-23 04:33N 45°26' E 012°19'0 0.0
2017-Feb-23 03:33N 45°26' E 012°19'0 0.0
2017-Feb-23 02:33N 45°26' E 012°19'0 0.0
2017-Feb-23 01:33N 45°26' E 012°19'0 0.0
2017-Feb-23 00:33N 45°26' E 012°19'0 0.0
2017-Feb-22 23:33N 45°26' E 012°19'5 5.4
2017-Feb-22 22:33N 45°25' E 012°27'6 6.1
2017-Feb-22 21:33N 45°25' E 012°35'9 9.4
2017-Feb-22 20:33N 45°27' E 012°48'9 9.3
2017-Feb-22 19:33N 45°30' E 013°01'9 9.4
2017-Feb-22 18:33N 45°33' E 013°14'9 9.3
2017-Feb-22 17:33N 45°36' E 013°26'9 9.1
2017-Feb-22 16:33N 45°39' E 013°39'5 5.0
2017-Feb-22 15:33N 45°39' E 013°46'0 0.0
2017-Feb-22 14:30N 45°39' E 013°46'0 0.0
2017-Feb-22 13:33N 45°39' E 013°46'0 0.0
2017-Feb-22 12:27N 45°39' E 013°46'0 0.0
2017-Feb-22 09:33N 45°39' E 013°46'0 0.0
2017-Feb-22 08:18N 45°39' E 013°46'0 0.0
2017-Feb-22 07:27N 45°39' E 013°46'0 0.0
2017-Feb-22 06:21N 45°39' E 013°46'0 0.0
2017-Feb-22 05:30N 45°39' E 013°46'0 0.0
2017-Feb-22 04:12N 45°39' E 013°46'0 0.0
2017-Feb-22 03:30N 45°39' E 013°46'0 0.0
2017-Feb-22 02:18N 45°39' E 013°46'0 0.0
2017-Feb-22 01:27N 45°39' E 013°46'0 0.0
2017-Feb-22 00:24N 45°39' E 013°46'0 0.0
2017-Feb-21 23:30N 45°39' E 013°46'0 0.0
2017-Feb-21 22:30N 45°39' E 013°46'0 0.0
2017-Feb-21 21:33N 45°39' E 013°46'0 0.0
2017-Feb-21 20:33N 45°39' E 013°46'0 0.0
2017-Feb-21 19:30N 45°39' E 013°46'0 0.0
2017-Feb-21 18:30N 45°39' E 013°46'0 0.0
2017-Feb-21 17:30N 45°39' E 013°46'0 0.0
2017-Feb-21 16:30N 45°39' E 013°46'0 0.0
2017-Feb-21 15:18N 45°39' E 013°46'0 0.0
2017-Feb-21 14:30N 45°39' E 013°46'0 0.0
2017-Feb-21 13:30N 45°39' E 013°46'0 0.0
2017-Feb-21 12:30N 45°39' E 013°46'0 0.0
2017-Feb-21 11:24N 45°39' E 013°46'0 0.0
2017-Feb-21 10:32N 45°39' E 013°46'0 0.0
2017-Feb-21 09:33N 45°39' E 013°46'0 0.0
2017-Feb-21 08:33N 45°39' E 013°46'0 0.0
2017-Feb-21 07:33N 45°39' E 013°46'0 0.0
2017-Feb-21 06:33N 45°39' E 013°46'0 0.0
2017-Feb-21 05:33N 45°39' E 013°46'0 0.0
2017-Feb-21 04:33N 45°39' E 013°46'0 0.0
2017-Feb-21 03:33N 45°39' E 013°46'0 0.0
2017-Feb-21 02:32N 45°39' E 013°46'0 0.0
2017-Feb-21 01:33N 45°39' E 013°46'0 0.0
2017-Feb-21 00:33N 45°39' E 013°46'0 0.0
2017-Feb-20 23:33N 45°39' E 013°46'0 0.0
2017-Feb-20 22:33N 45°39' E 013°46'0 0.0
2017-Feb-20 21:33N 45°39' E 013°46'0 0.0
2017-Feb-20 20:33N 45°39' E 013°46'0 0.0
2017-Feb-20 19:31N 45°39' E 013°46'0 0.0
2017-Feb-20 18:32N 45°39' E 013°46'0 0.0
2017-Feb-20 17:34N 45°39' E 013°46'7 7.1
2017-Feb-20 16:33N 45°43' E 013°37'4 0.5
2017-Feb-20 09:32N 45°46' E 013°38'0 0.0
2017-Feb-20 06:04N 45°46' E 013°38'3 6.6
2017-Feb-20 05:33N 45°43' E 013°38'9 9.1
2017-Feb-20 04:33N 45°35' E 013°32'9 8.6
2017-Feb-20 03:33N 45°27' E 013°27'10 9.8
2017-Feb-20 02:33N 45°17' E 013°28'10 9.5
2017-Feb-20 01:33N 45°08' E 013°30'6 6.0
2017-Feb-20 00:30N 45°05' E 013°38'0 0.0
2017-Feb-19 23:30N 45°05' E 013°38'0 0.0
2017-Feb-19 22:27N 45°05' E 013°38'0 0.0
2017-Feb-19 21:30N 45°05' E 013°38'0 0.0
2017-Feb-19 20:30N 45°05' E 013°38'0 0.0
2017-Feb-19 19:33N 45°05' E 013°38'0 0.0
2017-Feb-19 18:30N 45°05' E 013°38'0 0.0
2017-Feb-19 17:33N 45°05' E 013°38'0 0.0
2017-Feb-19 16:33N 45°05' E 013°38'0 0.0
2017-Feb-19 15:33N 45°05' E 013°38'0 0.0
2017-Feb-19 14:15N 45°05' E 013°38'0 0.0
2017-Feb-19 13:33N 45°05' E 013°38'0 0.0
2017-Feb-19 12:33N 45°05' E 013°38'0 0.0
2017-Feb-19 11:33N 45°05' E 013°38'0 0.0
2017-Feb-19 10:33N 45°05' E 013°38'0 0.0
2017-Feb-19 09:33N 45°05' E 013°38'0 0.0
2017-Feb-19 08:33N 45°05' E 013°38'0 0.0
2017-Feb-19 07:33N 45°05' E 013°38'6 6.1
2017-Feb-19 06:33N 44°59' E 013°38'9 8.3
2017-Feb-19 05:30N 44°53' E 013°47'2 0.1
2017-Feb-18 05:32N 44°52' E 013°45'7 7.5
2017-Feb-18 04:33N 44°58' E 013°38'1010.0
2017-Feb-18 03:33N 45°07' E 013°32'1010.2
2017-Feb-18 02:33N 45°17' E 013°29'1010.1
2017-Feb-18 01:33N 45°27' E 013°27'5 5.5
2017-Feb-18 00:33N 45°32' E 013°29'1 0.9
2017-Feb-17 23:33N 45°32' E 013°30'1 0.8
2017-Feb-17 22:34N 45°32' E 013°31'2 2.0
2017-Feb-17 21:31N 45°32' E 013°34'0 0.0
2017-Feb-17 20:19N 45°32' E 013°34'0 0.0
2017-Feb-17 19:31N 45°32' E 013°34'0 0.0
2017-Feb-17 18:31N 45°32' E 013°34'0 0.0
2017-Feb-17 17:25N 45°32' E 013°34'0 0.0
2017-Feb-17 16:34N 45°32' E 013°34'0 0.0
2017-Feb-17 15:31N 45°32' E 013°34'0 0.0
2017-Feb-17 14:31N 45°32' E 013°34'0 0.0
2017-Feb-17 13:30N 45°32' E 013°34'0 0.0
2017-Feb-17 12:34N 45°32' E 013°34'0 0.0
2017-Feb-17 11:21N 45°32' E 013°34'0 0.0
2017-Feb-17 10:27N 45°32' E 013°34'0 0.0
2017-Feb-17 09:27N 45°32' E 013°34'0 0.0
2017-Feb-17 08:31N 45°32' E 013°34'0 0.0
2017-Feb-17 07:30N 45°32' E 013°34'0 0.0
2017-Feb-17 06:30N 45°32' E 013°34'1 1.1
2017-Feb-17 05:31N 45°31' E 013°34'0 0.0
2017-Feb-17 04:31N 45°31' E 013°34'0 0.0
2017-Feb-17 03:31N 45°31' E 013°34'0 0.0
2017-Feb-17 02:28N 45°31' E 013°34'0 0.0
2017-Feb-17 01:33N 45°31' E 013°34'0 0.0
2017-Feb-17 00:33N 45°31' E 013°34'0 0.0
2017-Feb-16 23:33N 45°31' E 013°34'0 0.0
2017-Feb-16 22:33N 45°31' E 013°34'0 0.1
2017-Feb-16 21:33N 45°31' E 013°34'9 8.8
2017-Feb-16 20:33N 45°30' E 013°21'10 9.7
2017-Feb-16 19:33N 45°28' E 013°08'10 9.6
2017-Feb-16 18:33N 45°26' E 012°54'10 9.6
2017-Feb-16 17:33N 45°23' E 012°41'9 8.9
2017-Feb-16 16:33N 45°24' E 012°29'7 6.4
2017-Feb-16 15:29N 45°26' E 012°19'0 0.0
2017-Feb-16 14:32N 45°26' E 012°19'0 0.0
2017-Feb-16 13:32N 45°26' E 012°19'0 0.0
2017-Feb-16 12:32N 45°26' E 012°19'0 0.0
2017-Feb-16 11:32N 45°26' E 012°19'0 0.0
2017-Feb-16 10:32N 45°26' E 012°19'0 0.0
2017-Feb-16 09:32N 45°26' E 012°19'0 0.0
2017-Feb-16 08:32N 45°26' E 012°19'  
Track history (hours):
 
Tides and Currents Weather Stations Pressure Air Temp Water Temp Dewpoint Dewpoint Depression Visibility Wind Speed Wind Dir Waves Ship Positions

Arethusa

Last reported at 2017-Feb-26 07:33 UTC. Time now 2017-Feb-26 07:39 UTC.
Position N 45°05' E 013°38'.

Length 60 m; draft 3 m.

Type: Passenger vessel. MMSI: 249069000.

Date/timePositionNaut miles runAvg speedWind from/ knotsBaromVisibWave heightAir tempDewpointWater temp
2017-Feb-26 07:33N 45°05' E 013°38'5 5.2
2017-Feb-26 06:33N 45°00' E 013°37'10 9.5
2017-Feb-26 05:31N 44°53' E 013°47'2 0.1
2017-Feb-25 05:33N 44°52' E 013°44'10 9.7
2017-Feb-25 04:33N 44°60' E 013°36'10 9.5
2017-Feb-25 03:33N 45°09' E 013°31'6 6.0
2017-Feb-25 02:33N 45°15' E 013°32'0 0.4
2017-Feb-25 01:33N 45°15' E 013°33'8 7.6
2017-Feb-25 00:33N 45°22' E 013°28'8 8.4
2017-Feb-24 23:33N 45°30' E 013°27'9 9.2
2017-Feb-24 22:33N 45°34' E 013°39'4 3.5
2017-Feb-24 21:32N 45°33' E 013°44'0 0.0
2017-Feb-24 20:29N 45°33' E 013°44'0 0.0
2017-Feb-24 19:32N 45°33' E 013°44'0 0.0
2017-Feb-24 18:26N 45°33' E 013°44'0 0.0
2017-Feb-24 17:32N 45°33' E 013°44'0 0.0
2017-Feb-24 16:32N 45°33' E 013°44'0 0.0
2017-Feb-24 15:32N 45°33' E 013°44'0 0.0
2017-Feb-24 14:32N 45°33' E 013°44'0 0.0
2017-Feb-24 13:26N 45°33' E 013°44'0 0.0
2017-Feb-24 12:29N 45°33' E 013°44'0 0.0
2017-Feb-24 11:32N 45°33' E 013°44'0 0.0
2017-Feb-24 10:26N 45°33' E 013°44'0 0.0
2017-Feb-24 09:23N 45°33' E 013°44'0 0.0
2017-Feb-24 08:32N 45°33' E 013°44'0 0.0
2017-Feb-24 07:29N 45°33' E 013°44'0 0.0
2017-Feb-24 06:32N 45°33' E 013°44'2 2.3
2017-Feb-24 05:32N 45°34' E 013°41'0 0.0
2017-Feb-24 04:32N 45°34' E 013°41'0 0.0
2017-Feb-24 03:32N 45°34' E 013°41'0 0.0
2017-Feb-24 02:32N 45°34' E 013°41'0 0.0
2017-Feb-24 01:32N 45°34' E 013°41'0 0.0
2017-Feb-24 00:29N 45°34' E 013°41'0 0.0
2017-Feb-23 23:32N 45°34' E 013°41'0 0.0
2017-Feb-23 22:31N 45°34' E 013°41'0 0.4
2017-Feb-23 21:34N 45°34' E 013°40'10 9.6
2017-Feb-23 20:33N 45°32' E 013°27'1010.2
2017-Feb-23 19:34N 45°24' E 013°18'1010.4
2017-Feb-23 18:34N 45°22' E 013°03'1111.3
2017-Feb-23 17:34N 45°22' E 012°47'1111.1
2017-Feb-23 16:34N 45°23' E 012°31'8 8.1
2017-Feb-23 15:33N 45°26' E 012°21'1 1.0
2017-Feb-23 14:33N 45°26' E 012°19'0 0.0
2017-Feb-23 13:33N 45°26' E 012°19'0 0.0
2017-Feb-23 12:33N 45°26' E 012°19'0 0.0
2017-Feb-23 11:33N 45°26' E 012°19'0 0.0
2017-Feb-23 10:33N 45°26' E 012°19'0 0.0
2017-Feb-23 09:33N 45°26' E 012°19'0 0.0
2017-Feb-23 08:33N 45°26' E 012°19'0 0.0
2017-Feb-23 07:33N 45°26' E 012°19'0 0.0
2017-Feb-23 06:33N 45°26' E 012°19'0 0.0
2017-Feb-23 05:33N 45°26' E 012°19'0 0.0
2017-Feb-23 04:33N 45°26' E 012°19'0 0.0
2017-Feb-23 03:33N 45°26' E 012°19'0 0.0
2017-Feb-23 02:33N 45°26' E 012°19'0 0.0
2017-Feb-23 01:33N 45°26' E 012°19'0 0.0
2017-Feb-23 00:33N 45°26' E 012°19'0 0.0
2017-Feb-22 23:33N 45°26' E 012°19'5 5.4
2017-Feb-22 22:33N 45°25' E 012°27'6 6.1
2017-Feb-22 21:33N 45°25' E 012°35'9 9.4
2017-Feb-22 20:33N 45°27' E 012°48'9 9.3
2017-Feb-22 19:33N 45°30' E 013°01'9 9.4
2017-Feb-22 18:33N 45°33' E 013°14'9 9.3
2017-Feb-22 17:33N 45°36' E 013°26'9 9.1
2017-Feb-22 16:33N 45°39' E 013°39'5 5.0
2017-Feb-22 15:33N 45°39' E 013°46'0 0.0
2017-Feb-22 14:30N 45°39' E 013°46'0 0.0
2017-Feb-22 13:33N 45°39' E 013°46'0 0.0
2017-Feb-22 12:27N 45°39' E 013°46'0 0.0
2017-Feb-22 09:33N 45°39' E 013°46'0 0.0
2017-Feb-22 08:18N 45°39' E 013°46'0 0.0
2017-Feb-22 07:27N 45°39' E 013°46'0 0.0
2017-Feb-22 06:21N 45°39' E 013°46'0 0.0
2017-Feb-22 05:30N 45°39' E 013°46'0 0.0
2017-Feb-22 04:12N 45°39' E 013°46'0 0.0
2017-Feb-22 03:30N 45°39' E 013°46'0 0.0
2017-Feb-22 02:18N 45°39' E 013°46'0 0.0
2017-Feb-22 01:27N 45°39' E 013°46'0 0.0
2017-Feb-22 00:24N 45°39' E 013°46'0 0.0
2017-Feb-21 23:30N 45°39' E 013°46'0 0.0
2017-Feb-21 22:30N 45°39' E 013°46'0 0.0
2017-Feb-21 21:33N 45°39' E 013°46'0 0.0
2017-Feb-21 20:33N 45°39' E 013°46'0 0.0
2017-Feb-21 19:30N 45°39' E 013°46'0 0.0
2017-Feb-21 18:30N 45°39' E 013°46'0 0.0
2017-Feb-21 17:30N 45°39' E 013°46'0 0.0
2017-Feb-21 16:30N 45°39' E 013°46'0 0.0
2017-Feb-21 15:18N 45°39' E 013°46'0 0.0
2017-Feb-21 14:30N 45°39' E 013°46'0 0.0
2017-Feb-21 13:30N 45°39' E 013°46'0 0.0
2017-Feb-21 12:30N 45°39' E 013°46'0 0.0
2017-Feb-21 11:24N 45°39' E 013°46'0 0.0
2017-Feb-21 10:32N 45°39' E 013°46'0 0.0
2017-Feb-21 09:33N 45°39' E 013°46'0 0.0
2017-Feb-21 08:33N 45°39' E 013°46'0 0.0
2017-Feb-21 07:33N 45°39' E 013°46'0 0.0
2017-Feb-21 06:33N 45°39' E 013°46'0 0.0
2017-Feb-21 05:33N 45°39' E 013°46'0 0.0
2017-Feb-21 04:33N 45°39' E 013°46'0 0.0
2017-Feb-21 03:33N 45°39' E 013°46'0 0.0
2017-Feb-21 02:32N 45°39' E 013°46'0 0.0
2017-Feb-21 01:33N 45°39' E 013°46'0 0.0
2017-Feb-21 00:33N 45°39' E 013°46'0 0.0
2017-Feb-20 23:33N 45°39' E 013°46'0 0.0
2017-Feb-20 22:33N 45°39' E 013°46'0 0.0
2017-Feb-20 21:33N 45°39' E 013°46'0 0.0
2017-Feb-20 20:33N 45°39' E 013°46'0 0.0
2017-Feb-20 19:31N 45°39' E 013°46'0 0.0
2017-Feb-20 18:32N 45°39' E 013°46'0 0.0
2017-Feb-20 17:34N 45°39' E 013°46'7 7.1
2017-Feb-20 16:33N 45°43' E 013°37'4 0.5
2017-Feb-20 09:32N 45°46' E 013°38'0 0.0
2017-Feb-20 06:04N 45°46' E 013°38'3 6.6
2017-Feb-20 05:33N 45°43' E 013°38'9 9.1
2017-Feb-20 04:33N 45°35' E 013°32'9 8.6
2017-Feb-20 03:33N 45°27' E 013°27'10 9.8
2017-Feb-20 02:33N 45°17' E 013°28'10 9.5
2017-Feb-20 01:33N 45°08' E 013°30'6 6.0
2017-Feb-20 00:30N 45°05' E 013°38'0 0.0
2017-Feb-19 23:30N 45°05' E 013°38'0 0.0
2017-Feb-19 22:27N 45°05' E 013°38'0 0.0
2017-Feb-19 21:30N 45°05' E 013°38'0 0.0
2017-Feb-19 20:30N 45°05' E 013°38'0 0.0
2017-Feb-19 19:33N 45°05' E 013°38'0 0.0
2017-Feb-19 18:30N 45°05' E 013°38'0 0.0
2017-Feb-19 17:33N 45°05' E 013°38'0 0.0
2017-Feb-19 16:33N 45°05' E 013°38'0 0.0
2017-Feb-19 15:33N 45°05' E 013°38'0 0.0
2017-Feb-19 14:15N 45°05' E 013°38'0 0.0
2017-Feb-19 13:33N 45°05' E 013°38'0 0.0
2017-Feb-19 12:33N 45°05' E 013°38'0 0.0
2017-Feb-19 11:33N 45°05' E 013°38'0 0.0
2017-Feb-19 10:33N 45°05' E 013°38'0 0.0
2017-Feb-19 09:33N 45°05' E 013°38'0 0.0
2017-Feb-19 08:33N 45°05' E 013°38'0 0.0
2017-Feb-19 07:33N 45°05' E 013°38'6 6.1
2017-Feb-19 06:33N 44°59' E 013°38'9 8.3
2017-Feb-19 05:30N 44°53' E 013°47'2 0.1
2017-Feb-18 05:32N 44°52' E 013°45'7 7.5
2017-Feb-18 04:33N 44°58' E 013°38'1010.0
2017-Feb-18 03:33N 45°07' E 013°32'1010.2
2017-Feb-18 02:33N 45°17' E 013°29'1010.1
2017-Feb-18 01:33N 45°27' E 013°27'5 5.5
2017-Feb-18 00:33N 45°32' E 013°29'1 0.9
2017-Feb-17 23:33N 45°32' E 013°30'1 0.8
2017-Feb-17 22:34N 45°32' E 013°31'2 2.0
2017-Feb-17 21:31N 45°32' E 013°34'0 0.0
2017-Feb-17 20:19N 45°32' E 013°34'0 0.0
2017-Feb-17 19:31N 45°32' E 013°34'0 0.0
2017-Feb-17 18:31N 45°32' E 013°34'0 0.0
2017-Feb-17 17:25N 45°32' E 013°34'0 0.0
2017-Feb-17 16:34N 45°32' E 013°34'0 0.0
2017-Feb-17 15:31N 45°32' E 013°34'0 0.0
2017-Feb-17 14:31N 45°32' E 013°34'0 0.0
2017-Feb-17 13:30N 45°32' E 013°34'0 0.0
2017-Feb-17 12:34N 45°32' E 013°34'0 0.0
2017-Feb-17 11:21N 45°32' E 013°34'0 0.0
2017-Feb-17 10:27N 45°32' E 013°34'0 0.0
2017-Feb-17 09:27N 45°32' E 013°34'0 0.0
2017-Feb-17 08:31N 45°32' E 013°34'0 0.0
2017-Feb-17 07:30N 45°32' E 013°34'0 0.0
2017-Feb-17 06:30N 45°32' E 013°34'1 1.1
2017-Feb-17 05:31N 45°31' E 013°34'0 0.0
2017-Feb-17 04:31N 45°31' E 013°34'0 0.0
2017-Feb-17 03:31N 45°31' E 013°34'0 0.0
2017-Feb-17 02:28N 45°31' E 013°34'0 0.0
2017-Feb-17 01:33N 45°31' E 013°34'0 0.0
2017-Feb-17 00:33N 45°31' E 013°34'0 0.0
2017-Feb-16 23:33N 45°31' E 013°34'0 0.0
2017-Feb-16 22:33N 45°31' E 013°34'0 0.1
2017-Feb-16 21:33N 45°31' E 013°34'9 8.8
2017-Feb-16 20:33N 45°30' E 013°21'10 9.7
2017-Feb-16 19:33N 45°28' E 013°08'10 9.6
2017-Feb-16 18:33N 45°26' E 012°54'10 9.6
2017-Feb-16 17:33N 45°23' E 012°41'9 8.9
2017-Feb-16 16:33N 45°24' E 012°29'7 6.4
2017-Feb-16 15:29N 45°26' E 012°19'0 0.0
2017-Feb-16 14:32N 45°26' E 012°19'0 0.0
2017-Feb-16 13:32N 45°26' E 012°19'0 0.0
2017-Feb-16 12:32N 45°26' E 012°19'0 0.0
2017-Feb-16 11:32N 45°26' E 012°19'0 0.0
2017-Feb-16 10:32N 45°26' E 012°19'0 0.0
2017-Feb-16 09:32N 45°26' E 012°19'0 0.0
2017-Feb-16 08:32N 45°26' E 012°19'  

Dump ship's entire track history